createdAt,value
2018-10-19T00:01:22.963Z,1.90
2018-10-19T00:05:25.806Z,3.30
2018-10-19T00:09:28.901Z,2.70
2018-10-19T00:13:31.714Z,3.90
2018-10-19T00:17:35.216Z,2.70
2018-10-19T00:21:38.066Z,2.50
2018-10-19T00:25:40.963Z,2.77
2018-10-19T00:29:44.354Z,1.63
2018-10-19T00:33:47.238Z,2.80
2018-10-19T00:37:50.291Z,3.27
2018-10-19T00:41:53.186Z,0.90
2018-10-19T00:45:56.023Z,3.80
2018-10-19T00:49:58.938Z,2.30
2018-10-19T00:54:01.782Z,1.93
2018-10-19T00:58:04.902Z,2.17
2018-10-19T01:02:07.757Z,4.33
2018-10-19T01:06:10.646Z,2.47
2018-10-19T01:10:18.694Z,3.23
2018-10-19T01:14:21.590Z,2.40
2018-10-19T01:18:24.631Z,5.67
2018-10-19T01:22:27.563Z,4.67
2018-10-19T01:26:30.410Z,7.57
2018-10-19T01:30:33.306Z,1.93
2018-10-19T01:34:36.155Z,1.63
2018-10-19T01:38:39.158Z,5.03
2018-10-19T01:42:42.320Z,2.23
2018-10-19T01:46:47.953Z,3.30
2018-10-19T01:50:50.828Z,2.43
2018-10-19T01:54:53.918Z,1.50
2018-10-19T01:58:56.826Z,4.23
2018-10-19T02:02:59.663Z,3.23
2018-10-19T02:07:02.696Z,2.10
2018-10-19T02:11:05.747Z,2.77
2018-10-19T02:15:08.635Z,5.23
2018-10-19T02:19:11.728Z,5.07
2018-10-19T02:23:14.853Z,5.03
2018-10-19T02:27:17.670Z,5.37
2018-10-19T02:31:20.720Z,7.33
2018-10-19T02:35:23.775Z,5.50
2018-10-19T02:39:26.656Z,4.63
2018-10-19T02:43:29.710Z,7.77
2018-10-19T02:47:32.817Z,4.90
2018-10-19T02:51:36.206Z,3.53
2018-10-19T02:55:39.487Z,3.60
2018-10-19T02:59:42.327Z,3.70
2018-10-19T03:03:45.255Z,8.23
2018-10-19T03:07:48.109Z,4.77
2018-10-19T03:11:51.195Z,3.67
2018-10-19T03:15:54.035Z,3.73
2018-10-19T03:19:57.094Z,8.53
2018-10-19T03:24:00.204Z,5.30
2018-10-19T03:28:03.090Z,5.93
2018-10-19T03:32:06.234Z,8.13
2018-10-19T03:36:09.135Z,4.50
2018-10-19T03:40:11.979Z,5.13
2018-10-19T03:44:14.971Z,4.10
2018-10-19T03:48:17.834Z,4.13
2018-10-19T03:52:20.916Z,5.27
2018-10-19T03:56:23.759Z,3.87
2018-10-19T04:00:26.656Z,6.90
2018-10-19T04:04:29.504Z,7.03
2018-10-19T04:08:32.376Z,4.70
2018-10-19T04:12:35.228Z,4.50
2018-10-19T04:16:38.451Z,4.40
2018-10-19T04:20:41.291Z,5.47
2018-10-19T04:24:44.192Z,4.70
2018-10-19T04:28:47.316Z,3.53
2018-10-19T04:32:50.321Z,6.40
2018-10-19T04:36:57.769Z,4.77
2018-10-19T04:41:00.877Z,4.93
2018-10-19T04:45:03.990Z,3.20
2018-10-19T04:49:06.819Z,3.93
2018-10-19T04:53:09.733Z,6.10
2018-10-19T04:57:12.774Z,3.10
2018-10-19T05:01:15.551Z,5.93
2018-10-19T05:05:18.710Z,4.10
2018-10-19T05:09:21.515Z,3.90
2018-10-19T05:13:24.429Z,7.13
2018-10-19T05:17:27.274Z,3.50
2018-10-19T05:21:30.167Z,5.93
2018-10-19T05:25:33.215Z,3.57
2018-10-19T05:29:36.115Z,4.13
2018-10-19T05:33:39.283Z,3.80
2018-10-19T05:37:42.405Z,3.73
2018-10-19T05:41:45.244Z,9.20
2018-10-19T05:45:48.335Z,7.30
2018-10-19T05:49:51.179Z,4.60
2018-10-19T05:53:54.088Z,5.90
2018-10-19T05:57:56.924Z,5.10
2018-10-19T06:01:59.844Z,5.07
2018-10-19T06:06:02.670Z,7.30
2018-10-19T06:10:05.934Z,8.73
2018-10-19T06:14:09.592Z,8.73
2018-10-19T06:18:12.350Z,6.43
2018-10-19T06:22:15.412Z,9.47
2018-10-19T06:26:18.573Z,4.97
2018-10-19T06:30:21.358Z,5.00
2018-10-19T06:34:24.362Z,5.60
2018-10-19T06:38:27.198Z,5.10
2018-10-19T06:42:30.319Z,8.53
2018-10-19T06:46:33.196Z,5.77
2018-10-19T06:50:36.139Z,9.23
2018-10-19T06:54:39.185Z,5.53
2018-10-19T06:58:42.079Z,9.97
2018-10-19T07:02:45.147Z,8.13
2018-10-19T07:06:48.411Z,9.97
2018-10-19T07:10:51.254Z,10.33
2018-10-19T07:14:54.355Z,8.53
2018-10-19T07:18:57.247Z,8.00
2018-10-19T07:23:00.112Z,5.57
2018-10-19T07:27:02.999Z,7.63
2018-10-19T07:31:05.896Z,3.93
2018-10-19T07:35:09.132Z,10.57
2018-10-19T07:39:11.966Z,12.63
2018-10-19T07:43:14.810Z,8.50
2018-10-19T07:47:18.126Z,4.80
2018-10-19T07:51:20.803Z,8.53
2018-10-19T07:55:24.035Z,8.00
2018-10-19T07:59:26.937Z,7.40
2018-10-19T08:03:29.822Z,8.80
2018-10-19T08:07:32.667Z,5.83
2018-10-19T08:11:35.625Z,8.60
2018-10-19T08:15:38.613Z,4.30
2018-10-19T08:19:41.510Z,8.83
2018-10-19T08:23:44.554Z,7.87
2018-10-19T08:27:47.663Z,9.80
2018-10-19T08:31:50.534Z,10.07
2018-10-19T08:35:53.745Z,6.80
2018-10-19T08:39:56.591Z,8.70
2018-10-19T08:43:59.526Z,9.37
2018-10-19T08:48:02.371Z,8.80
2018-10-19T08:52:05.267Z,8.73
2018-10-19T08:56:08.379Z,6.03
2018-10-19T09:00:12.193Z,8.47
2018-10-19T09:04:15.475Z,15.93
2018-10-19T09:08:18.442Z,14.97
2018-10-19T09:12:21.530Z,7.13
2018-10-19T09:16:24.390Z,10.73
2018-10-19T09:20:27.262Z,8.37
2018-10-19T09:24:30.464Z,10.10
2018-10-19T09:28:33.306Z,8.93
2018-10-19T09:32:36.196Z,7.67
2018-10-19T09:36:39.346Z,11.70
2018-10-19T09:40:42.265Z,12.13
2018-10-19T09:44:45.067Z,10.70
2018-10-19T09:48:47.970Z,7.60
2018-10-19T09:52:51.052Z,9.20
2018-10-19T09:56:53.991Z,8.33
2018-10-19T10:00:57.671Z,10.60
2018-10-19T10:05:00.599Z,12.87
2018-10-19T10:09:05.874Z,12.47
2018-10-19T10:13:09.018Z,10.30
2018-10-19T10:17:11.849Z,8.63
2018-10-19T10:21:14.710Z,15.23
2018-10-19T10:25:17.624Z,11.30
2018-10-19T10:29:20.755Z,12.27
2018-10-19T10:33:23.599Z,12.57
2018-10-19T10:37:26.494Z,11.00
2018-10-19T10:41:29.339Z,14.87
2018-10-19T10:45:32.431Z,9.40
2018-10-19T10:49:35.287Z,10.70
2018-10-19T10:53:38.543Z,11.00
2018-10-19T10:57:41.394Z,9.13
2018-10-19T11:01:44.326Z,12.23
2018-10-19T11:05:47.494Z,9.80
2018-10-19T11:09:50.767Z,8.40
2018-10-19T11:13:53.603Z,6.77
2018-10-19T11:17:56.512Z,5.70
2018-10-19T11:21:59.413Z,9.27
2018-10-19T11:26:02.284Z,17.10
2018-10-19T11:30:05.643Z,5.67
2018-10-19T11:34:08.850Z,5.67
2018-10-19T11:38:11.650Z,3.67
2018-10-19T11:42:14.736Z,4.67
2018-10-19T11:46:17.654Z,5.27
2018-10-19T11:50:20.483Z,16.47
2018-10-19T11:54:23.330Z,5.00
2018-10-19T11:58:26.230Z,4.93
2018-10-19T12:02:29.335Z,6.63
2018-10-19T12:06:32.531Z,3.80
2018-10-19T12:10:35.636Z,7.30
2018-10-19T12:14:38.527Z,6.40
2018-10-19T12:18:41.371Z,11.50
2018-10-19T12:22:44.454Z,7.00
2018-10-19T12:26:47.326Z,8.73
2018-10-19T12:30:50.327Z,6.33
2018-10-19T12:34:53.429Z,5.80
2018-10-19T12:38:56.560Z,7.03
2018-10-19T12:42:59.379Z,5.13
2018-10-19T12:47:07.890Z,7.10
2018-10-19T12:51:11.024Z,7.73
2018-10-19T12:55:14.203Z,9.70
2018-10-19T12:59:16.985Z,7.40
2018-10-19T13:03:20.197Z,7.10
2018-10-19T13:07:23.068Z,4.80
2018-10-19T13:11:26.299Z,5.20
2018-10-19T13:15:29.153Z,6.50
2018-10-19T13:19:32.256Z,10.80
2018-10-19T13:23:35.094Z,7.63
2018-10-19T13:27:38.003Z,9.40
2018-10-19T13:31:41.058Z,7.87
2018-10-19T13:35:43.946Z,5.70
2018-10-19T13:39:46.794Z,6.37
2018-10-19T13:43:49.692Z,6.70
2018-10-19T13:47:52.547Z,6.30
2018-10-19T13:51:55.428Z,6.43
2018-10-19T13:55:58.265Z,8.23
2018-10-19T14:00:01.518Z,13.83
2018-10-19T14:04:04.610Z,7.93
2018-10-19T14:08:07.521Z,8.73
2018-10-19T14:12:10.571Z,7.87
2018-10-19T14:16:13.697Z,15.90
2018-10-19T14:20:16.538Z,7.33
2018-10-19T14:24:19.639Z,6.20
2018-10-19T14:28:22.483Z,10.57
2018-10-19T14:32:25.383Z,7.50
2018-10-19T14:36:28.431Z,20.07
2018-10-19T14:40:31.345Z,12.47
2018-10-19T14:44:34.201Z,6.80
2018-10-19T14:48:37.122Z,7.00
2018-10-19T14:52:39.970Z,9.90
2018-10-19T14:56:42.859Z,7.47
2018-10-19T15:00:45.694Z,7.73
2018-10-19T15:04:48.769Z,8.97
2018-10-19T15:08:51.839Z,9.83
2018-10-19T15:12:54.938Z,8.33
2018-10-19T15:16:57.989Z,6.23
2018-10-19T15:21:00.907Z,8.03
2018-10-19T15:25:03.726Z,8.90
2018-10-19T15:29:06.677Z,7.53
2018-10-19T15:33:09.492Z,10.10
2018-10-19T15:37:12.567Z,8.90
2018-10-19T15:41:15.407Z,8.37
2018-10-19T15:45:18.411Z,6.30
2018-10-19T15:49:21.254Z,7.47
2018-10-19T15:53:24.160Z,7.27
2018-10-19T15:57:27.061Z,8.53
2018-10-19T16:01:30.111Z,7.17
2018-10-19T16:05:33.108Z,6.23
2018-10-19T16:09:36.007Z,9.33
2018-10-19T16:13:38.851Z,12.63
2018-10-19T16:17:41.840Z,6.20
2018-10-19T16:21:44.839Z,8.90
2018-10-19T16:25:47.738Z,7.40
2018-10-19T16:29:50.788Z,9.63
2018-10-19T16:33:53.983Z,9.70
2018-10-19T16:37:56.826Z,9.13
2018-10-19T16:41:59.998Z,7.43
2018-10-19T16:46:02.780Z,9.03
2018-10-19T16:50:05.679Z,6.63
2018-10-19T16:54:09.071Z,10.10
2018-10-19T16:58:12.316Z,9.13
2018-10-19T17:02:15.115Z,9.00
2018-10-19T17:06:18.028Z,9.63
2018-10-19T17:10:21.059Z,8.90
2018-10-19T17:14:23.962Z,12.00
2018-10-19T17:18:27.669Z,7.33
2018-10-19T17:22:30.574Z,10.93
2018-10-19T17:26:33.454Z,10.00
2018-10-19T17:30:36.605Z,8.80
2018-10-19T17:34:39.391Z,8.97
2018-10-19T17:38:42.434Z,10.47
2018-10-19T17:42:45.568Z,8.83
2018-10-19T17:46:48.599Z,10.83
2018-10-19T17:50:51.776Z,11.50
2018-10-19T17:54:54.835Z,12.33
2018-10-19T17:58:57.960Z,19.83
2018-10-19T18:03:00.986Z,14.53
2018-10-19T18:07:04.331Z,12.67
2018-10-19T18:11:07.258Z,11.67
2018-10-19T18:15:10.655Z,10.80
2018-10-19T18:19:13.391Z,9.23
2018-10-19T18:23:16.513Z,8.40
2018-10-19T18:27:19.127Z,8.17
2018-10-19T18:31:22.243Z,8.80
2018-10-19T18:35:25.174Z,9.23
2018-10-19T18:39:28.174Z,9.13
2018-10-19T18:43:31.042Z,9.50
2018-10-19T18:47:33.943Z,10.70
2018-10-19T18:51:37.018Z,9.17
2018-10-19T18:55:40.128Z,9.03
2018-10-19T18:59:42.966Z,10.07
2018-10-19T19:03:45.866Z,9.00
2018-10-19T19:07:48.738Z,8.70
2018-10-19T19:11:51.696Z,9.80
2018-10-19T19:15:54.787Z,22.97
2018-10-19T19:20:03.221Z,17.30
2018-10-19T19:24:11.432Z,11.50
2018-10-19T19:28:14.426Z,11.93
2018-10-19T19:32:17.801Z,14.37
2018-10-19T19:36:20.651Z,13.50
2018-10-19T19:40:23.559Z,9.60
2018-10-19T19:44:26.432Z,13.80
2018-10-19T19:48:34.751Z,11.63
2018-10-19T19:52:37.815Z,13.10
2018-10-19T19:56:40.786Z,16.03
2018-10-19T20:00:43.641Z,26.87
2018-10-19T20:04:46.771Z,24.43
2018-10-19T20:08:49.623Z,17.03
2018-10-19T20:12:52.574Z,15.30
2018-10-19T20:16:55.721Z,10.80
2018-10-19T20:20:58.646Z,10.07
2018-10-19T20:25:01.491Z,10.20
2018-10-19T20:29:04.672Z,12.33
2018-10-19T20:33:07.802Z,9.90
2018-10-19T20:37:10.694Z,8.57
2018-10-19T20:41:13.583Z,7.60
2018-10-19T20:45:16.443Z,11.70
2018-10-19T20:49:19.291Z,11.23
2018-10-19T20:53:22.183Z,10.93
2018-10-19T20:57:25.247Z,10.87
2018-10-19T21:01:28.138Z,10.67
2018-10-19T21:05:30.987Z,10.87
2018-10-19T21:09:33.878Z,11.93
2018-10-19T21:13:36.747Z,7.10
2018-10-19T21:17:40.200Z,7.20
2018-10-19T21:21:43.038Z,9.00
2018-10-19T21:25:46.074Z,8.97
2018-10-19T21:29:48.968Z,8.20
2018-10-19T21:33:51.954Z,14.07
2018-10-19T21:37:55.027Z,14.60
2018-10-19T21:41:57.895Z,6.87
2018-10-19T21:46:00.741Z,5.70
2018-10-19T21:50:03.924Z,5.97
2018-10-19T21:54:06.738Z,6.77
2018-10-19T21:58:09.631Z,7.50
2018-10-19T22:02:12.524Z,7.77
2018-10-19T22:06:15.350Z,12.67
2018-10-19T22:10:18.401Z,9.67
2018-10-19T22:14:21.281Z,8.83
2018-10-19T22:18:24.323Z,9.13
2018-10-19T22:22:27.210Z,8.27
2018-10-19T22:26:30.247Z,8.10
2018-10-19T22:30:33.443Z,6.70
2018-10-19T22:34:36.418Z,7.00
2018-10-19T22:38:39.411Z,5.40
2018-10-19T22:42:42.459Z,5.47
2018-10-19T22:46:45.347Z,4.67
2018-10-19T22:50:48.226Z,6.70
2018-10-19T22:54:51.226Z,7.23
2018-10-19T22:58:54.293Z,4.30
2018-10-19T23:02:57.363Z,3.70
2018-10-19T23:07:00.218Z,3.60
2018-10-19T23:11:03.384Z,4.37
2018-10-19T23:15:06.272Z,6.00
2018-10-19T23:19:09.206Z,4.77
2018-10-19T23:23:12.277Z,3.90
2018-10-19T23:27:15.091Z,4.27
2018-10-19T23:31:18.006Z,4.20
2018-10-19T23:35:20.966Z,6.20
2018-10-19T23:39:24.003Z,3.63
2018-10-19T23:43:27.111Z,3.20
2018-10-19T23:47:29.954Z,5.80
2018-10-19T23:51:33.219Z,2.43
2018-10-19T23:55:36.086Z,2.63
2018-10-19T23:59:38.975Z,3.30
